Time;durP1;ratioP1;P1;durP2;ratioP2;P2;SDS_P1;SDS_P2;PMS_P1;PMS_P2;Temp;Humidity;BMP_temperature;BMP_pressure;BME280_temperature;BME280_humidity;BME280_pressure;Samples;Min_cycle;Max_cycle;Signal;HPM_P1;HPM_P2
2021/08/25 00:01:10;;;;;;;;;6.75;6.75;;;;;16.59;56.10;101369.59;5076653;27;46372;-70
2021/08/25 00:03:35;;;;;;;;;11.50;10.25;;;;;16.54;56.26;101368.13;5077699;27;45455;-67
2021/08/25 00:06:00;;;;;;;;;14.25;10.00;;;;;16.53;55.99;101371.72;5076183;27;45430;-74
2021/08/25 00:08:26;;;;;;;;;11.25;9.50;;;;;16.53;55.86;101372.59;5059910;27;45513;-77
2021/08/25 00:10:51;;;;;;;;;8.50;8.50;;;;;16.47;56.20;101370.25;5077824;27;46233;-77
2021/08/25 00:13:18;;;;;;;;;9.25;7.50;;;;;16.49;55.91;101368.38;5059510;28;45781;-70
2021/08/25 00:15:44;;;;;;;;;7.00;6.00;;;;;16.42;56.42;101362.50;5078170;28;45364;-74
2021/08/25 00:18:10;;;;;;;;;5.75;5.75;;;;;16.43;56.34;101363.34;5077995;28;45226;-72
2021/08/25 00:20:36;;;;;;;;;5.75;5.00;;;;;16.35;56.46;101356.66;5077572;27;45672;-73
2021/08/25 00:23:02;;;;;;;;;8.00;7.75;;;;;16.35;56.67;101354.00;5058811;28;45323;-72
2021/08/25 00:25:27;;;;;;;;;10.25;9.25;;;;;16.35;56.53;101359.31;5059336;28;45390;-76
2021/08/25 00:27:53;;;;;;;;;6.50;4.00;;;;;16.33;56.65;101361.19;5077938;27;45608;-73
2021/08/25 00:30:19;;;;;;;;;8.00;8.00;;;;;16.32;56.24;101356.81;5077229;28;45341;-73
2021/08/25 00:32:44;;;;;;;;;9.75;9.75;;;;;16.25;56.96;101346.59;5059364;28;45406;-68
2021/08/25 00:35:11;;;;;;;;;8.50;7.00;;;;;16.24;57.49;101342.25;5058995;28;45342;-73
2021/08/25 00:37:37;;;;;;;;;8.50;7.75;;;;;16.14;57.12;101331.22;5077895;27;45820;-73
2021/08/25 00:40:02;;;;;;;;;10.50;9.50;;;;;16.19;56.92;101342.47;5077458;28;45349;-71
2021/08/25 00:42:28;;;;;;;;;9.25;9.00;;;;;16.18;57.30;101344.28;5077524;28;45248;-68
2021/08/25 00:44:53;;;;;;;;;10.00;7.75;;;;;16.16;57.05;101350.59;5077563;27;45239;-67
2021/08/25 00:47:19;;;;;;;;;9.25;7.00;;;;;16.13;56.96;101338.34;5077585;28;45330;-71
2021/08/25 00:49:45;;;;;;;;;7.00;7.00;;;;;16.13;57.32;101351.63;5077323;28;45331;-70
2021/08/25 00:52:10;;;;;;;;;9.50;8.00;;;;;16.13;57.44;101348.97;5076573;27;45355;-69
2021/08/25 00:54:36;;;;;;;;;10.00;7.00;;;;;16.04;57.44;101334.34;5076870;27;45392;-72
2021/08/25 00:57:02;;;;;;;;;8.00;7.75;;;;;16.06;57.41;101339.59;5077183;28;45343;-72
2021/08/25 00:59:30;;;;;;;;;8.75;6.50;;;;;16.07;57.56;101351.94;5058526;28;47234;-70
2021/08/25 01:02:14;;;;;;;;;7.50;6.00;;;;;16.04;57.98;101342.31;5076700;28;45405;-73
2021/08/25 01:04:53;;;;;;;;;7.75;6.00;;;;;16.00;58.40;101343.41;5058516;27;45478;-70
2021/08/25 01:07:20;;;;;;;;;7.00;7.00;;;;;15.98;58.04;101337.31;5077335;27;45785;-66
2021/08/25 01:09:46;;;;;;;;;8.00;8.00;;;;;15.98;57.98;101336.47;5058730;28;46348;-72
2021/08/25 01:12:11;;;;;;;;;11.50;8.00;;;;;15.94;57.77;101324.31;5075326;28;46172;-71
2021/08/25 01:14:39;;;;;;;;;8.25;8.25;;;;;15.94;57.90;101334.94;5076653;28;45434;-71
2021/08/25 01:17:05;;;;;;;;;9.25;8.00;;;;;15.88;58.96;101326.31;5076873;28;45314;-70
2021/08/25 01:19:47;;;;;;;;;8.25;6.50;;;;;15.87;58.75;101332.56;5076447;28;46239;-73
2021/08/25 01:22:17;;;;;;;;;8.75;7.00;;;;;15.82;58.52;101323.09;5076574;28;45539;-73
2021/08/25 01:24:44;;;;;;;;;4.25;4.25;;;;;15.80;58.46;101324.97;5076297;28;45239;-75
2021/08/25 01:27:10;;;;;;;;;9.25;7.25;;;;;15.80;58.86;101327.63;5076784;28;45830;-72
2021/08/25 01:29:37;;;;;;;;;8.75;7.00;;;;;15.75;59.36;101322.53;5076231;28;45642;-69
2021/08/25 01:32:03;;;;;;;;;8.00;8.00;;;;;15.70;59.07;101321.91;5058052;28;45517;-73
2021/08/25 01:34:28;;;;;;;;;7.00;6.50;;;;;15.67;59.32;101320.28;5076247;27;45315;-71
2021/08/25 01:36:54;;;;;;;;;8.25;6.50;;;;;15.64;60.03;101323.09;5076520;28;45369;-72
2021/08/25 01:39:20;;;;;;;;;9.00;8.00;;;;;15.63;59.77;101326.66;5076450;28;45640;-71
2021/08/25 01:41:47;;;;;;;;;12.00;8.00;;;;;15.55;59.89;101324.38;5076595;28;45367;-73
2021/08/25 01:44:13;;;;;;;;;8.25;7.50;;;;;15.53;59.99;101322.75;5076223;28;45344;-70
2021/08/25 01:46:41;;;;;;;;;9.50;8.00;;;;;15.50;60.09;101326.41;5076382;28;45162;-74
2021/08/25 01:49:07;;;;;;;;;10.00;7.75;;;;;15.49;60.02;101319.38;5076073;27;46059;-75
2021/08/25 01:51:34;;;;;;;;;10.25;7.00;;;;;15.48;60.43;101320.31;5057748;28;45501;-73
2021/08/25 01:54:01;;;;;;;;;13.75;11.75;;;;;15.43;60.68;101315.25;5057395;28;45319;-72
2021/08/25 01:56:26;;;;;;;;;11.50;8.75;;;;;15.38;60.65;101314.63;5057846;28;45477;-71
2021/08/25 01:58:53;;;;;;;;;13.00;8.50;;;;;15.34;61.01;101316.56;5075695;27;46151;-68
2021/08/25 02:01:19;;;;;;;;;9.25;9.25;;;;;15.33;61.07;101309.53;5058084;28;45798;-69
2021/08/25 02:03:44;;;;;;;;;7.75;7.75;;;;;15.29;60.88;101307.09;5056672;28;45308;-70
2021/08/25 02:06:09;;;;;;;;;11.75;11.00;;;;;15.25;62.07;101311.69;5057830;28;45664;-73
2021/08/25 02:08:35;;;;;;;;;12.75;7.75;;;;;15.21;61.61;101315.44;5057477;28;48097;-73
2021/08/25 02:11:00;;;;;;;;;8.25;8.25;;;;;15.17;62.20;101316.50;5075869;28;45212;-72
2021/08/25 02:13:26;;;;;;;;;8.50;8.00;;;;;15.16;62.03;101312.16;5075989;27;45337;-73
2021/08/25 02:15:52;;;;;;;;;8.25;8.00;;;;;15.15;62.13;101297.19;5076302;28;45419;-72
2021/08/25 02:18:17;;;;;;;;;15.50;11.75;;;;;15.00;62.22;101285.50;5075890;27;46640;-73
2021/08/25 02:20:43;;;;;;;;;9.75;8.25;;;;;15.06;62.10;101295.81;5075634;28;45359;-73
2021/08/25 02:23:09;;;;;;;;;12.00;9.50;;;;;15.07;62.95;101304.63;5075715;28;45367;-70
2021/08/25 02:25:34;;;;;;;;;12.75;9.75;;;;;15.04;62.78;101295.91;5075577;27;45405;-66
2021/08/25 02:27:59;;;;;;;;;10.50;8.50;;;;;14.99;62.84;101297.03;5075351;27;46111;-71
2021/08/25 02:30:25;;;;;;;;;11.00;9.75;;;;;14.98;63.00;101295.31;5057118;28;45339;-68
2021/08/25 02:32:50;;;;;;;;;11.75;10.50;;;;;14.94;63.04;101286.69;5075959;27;45363;-68
2021/08/25 02:35:15;;;;;;;;;7.50;6.50;;;;;14.97;62.75;101305.06;5075562;27;45601;-69
2021/08/25 02:37:41;;;;;;;;;11.00;9.25;;;;;14.92;63.82;101299.13;5075357;27;45491;-69
2021/08/25 02:40:08;;;;;;;;;9.00;7.75;;;;;14.91;63.61;101297.41;5057651;28;45370;-72
2021/08/25 02:42:35;;;;;;;;;10.25;7.75;;;;;14.89;63.19;101299.28;5075278;28;45336;-72
2021/08/25 02:45:00;;;;;;;;;10.00;8.25;;;;;14.82;63.56;101296.03;5075326;28;45202;-70
2021/08/25 02:47:26;;;;;;;;;8.00;8.00;;;;;14.84;63.76;101302.13;5075136;27;45856;-73
2021/08/25 02:49:51;;;;;;;;;10.00;8.75;;;;;14.78;63.86;101289.19;5076015;27;45250;-72
2021/08/25 02:52:16;;;;;;;;;11.50;9.25;;;;;14.79;63.88;101290.88;5075696;27;45553;-73
2021/08/25 02:54:42;;;;;;;;;7.50;7.50;;;;;14.80;64.15;101300.56;5057605;28;45355;-76
2021/08/25 02:57:07;;;;;;;;;13.25;10.25;;;;;14.78;64.04;101296.25;5075487;27;46325;-74
2021/08/25 02:59:33;;;;;;;;;14.25;11.50;;;;;14.73;64.27;101293.81;5075366;28;45302;-73
2021/08/25 03:01:58;;;;;;;;;12.00;9.25;;;;;14.72;64.06;101285.00;5057496;28;45314;-72
2021/08/25 03:04:24;;;;;;;;;11.75;11.75;;;;;14.70;64.28;101284.22;5076376;27;45426;-73
2021/08/25 03:06:49;;;;;;;;;12.75;11.25;;;;;14.65;64.41;101283.53;5057369;28;47064;-71
2021/08/25 03:09:14;;;;;;;;;12.50;10.25;;;;;14.68;64.39;101287.84;5075290;28;45362;-70
2021/08/25 03:11:40;;;;;;;;;13.00;10.75;;;;;14.65;64.61;101286.19;5075185;27;45373;-74
2021/08/25 03:14:05;;;;;;;;;14.25;12.00;;;;;14.63;64.95;101285.41;5078115;28;45380;-73
2021/08/25 03:16:31;;;;;;;;;12.00;11.50;;;;;14.58;65.16;101282.09;5081993;27;46548;-69
2021/08/25 03:18:59;;;;;;;;;15.50;12.25;;;;;14.60;65.00;101285.53;5082273;27;45425;-73
2021/08/25 03:21:25;;;;;;;;;13.00;11.00;;;;;14.59;64.93;101289.13;5082693;27;45300;-70
2021/08/25 03:23:50;;;;;;;;;10.50;9.50;;;;;14.52;65.35;101279.75;5082521;27;45246;-71
2021/08/25 03:26:15;;;;;;;;;14.75;12.50;;;;;14.54;64.88;101292.00;5081584;27;45345;-71
2021/08/25 03:28:41;;;;;;;;;11.50;10.50;;;;;14.53;65.03;101284.97;5081571;28;45356;-70
2021/08/25 03:31:06;;;;;;;;;10.25;10.00;;;;;14.51;65.30;101288.63;5082283;27;45394;-70
2021/08/25 03:33:32;;;;;;;;;12.50;10.75;;;;;14.51;65.31;101288.63;5082077;27;45620;-69
2021/08/25 03:35:57;;;;;;;;;13.25;11.25;;;;;14.46;65.68;101281.75;5081787;28;45484;-72
2021/08/25 03:38:23;;;;;;;;;13.75;11.50;;;;;14.42;65.43;101274.88;5082217;28;45414;-67
2021/08/25 03:40:48;;;;;;;;;13.25;11.50;;;;;14.28;65.93;101256.13;5063332;27;45318;-71
2021/08/25 03:43:13;;;;;;;;;13.50;11.25;;;;;14.40;66.03;101279.38;5081685;27;45428;-73
2021/08/25 03:45:39;;;;;;;;;13.25;9.75;;;;;14.36;66.15;101275.16;5081693;28;45569;-73
2021/08/25 03:48:04;;;;;;;;;12.25;12.00;;;;;14.34;66.21;101284.09;5081079;27;45509;-74
2021/08/25 03:50:30;;;;;;;;;14.25;11.50;;;;;14.28;66.15;101278.13;5081647;27;45331;-70
2021/08/25 03:52:55;;;;;;;;;11.50;10.50;;;;;14.24;66.04;101283.63;5083213;27;45601;-72
2021/08/25 03:55:22;;;;;;;;;13.00;11.25;;;;;14.23;66.28;101281.91;5083559;27;45575;-75
2021/08/25 03:57:47;;;;;;;;;11.25;10.25;;;;;14.24;66.39;101287.13;5082562;27;45434;-70
2021/08/25 04:00:13;;;;;;;;;13.00;11.50;;;;;14.23;66.61;101289.84;5063212;28;45369;-68
2021/08/25 04:02:38;;;;;;;;;11.75;11.00;;;;;14.19;66.38;101283.81;5062966;28;45383;-68
2021/08/25 04:05:04;;;;;;;;;13.25;12.25;;;;;14.18;67.36;101284.75;5062741;28;47214;-69
2021/08/25 04:07:29;;;;;;;;;11.25;11.25;;;;;14.15;66.60;101282.25;5080843;28;45407;-70
2021/08/25 04:09:55;;;;;;;;;18.00;13.50;;;;;14.15;67.32;101287.53;5081278;27;45291;-68
2021/08/25 04:12:20;;;;;;;;;11.25;11.25;;;;;14.10;67.05;101279.81;5081303;28;45313;-69
2021/08/25 04:14:45;;;;;;;;;14.25;11.75;;;;;14.09;66.68;101283.38;5080676;28;45394;-69
2021/08/25 04:17:11;;;;;;;;;14.50;11.50;;;;;14.07;66.73;101279.06;5080907;27;45331;-67
2021/08/25 04:19:36;;;;;;;;;11.75;11.50;;;;;14.07;67.02;101284.38;5080647;27;45332;-67
2021/08/25 04:22:02;;;;;;;;;11.25;11.25;;;;;14.07;67.26;101279.06;5081159;27;45526;-66
2021/08/25 04:24:28;;;;;;;;;12.00;10.75;;;;;14.05;67.03;101275.63;5080854;27;45458;-67
2021/08/25 04:26:53;;;;;;;;;12.50;12.50;;;;;14.01;67.27;101275.78;5077065;27;45367;-71
2021/08/25 04:29:19;;;;;;;;;14.25;12.25;;;;;14.01;67.10;101277.56;5077533;27;45358;-70
2021/08/25 04:31:44;;;;;;;;;14.25;12.00;;;;;14.00;67.71;101287.28;5076047;27;45445;-73
2021/08/25 04:34:10;;;;;;;;;13.00;12.25;;;;;13.97;67.65;101281.28;5077177;28;46163;-71
2021/08/25 04:36:36;;;;;;;;;14.00;13.50;;;;;13.94;67.81;101276.13;5077279;28;45345;-71
2021/08/25 04:39:01;;;;;;;;;10.00;9.25;;;;;13.91;67.60;101271.81;5059089;28;45350;-72
2021/08/25 04:41:26;;;;;;;;;15.00;13.25;;;;;13.92;67.73;101272.69;5060132;28;45554;-72
2021/08/25 04:43:52;;;;;;;;;12.75;10.75;;;;;13.88;67.75;101269.31;5058928;28;47291;-72
2021/08/25 04:46:18;;;;;;;;;13.50;13.00;;;;;13.88;68.08;101272.81;5077313;28;45240;-70
2021/08/25 04:48:44;;;;;;;;;13.75;12.00;;;;;13.89;68.06;101278.94;5076931;27;45309;-70
2021/08/25 04:51:11;;;;;;;;;14.00;12.25;;;;;13.87;68.14;101276.41;5077229;27;45266;-67
2021/08/25 04:53:37;;;;;;;;;14.50;13.75;;;;;13.87;68.67;101278.16;5076837;27;45634;-70
2021/08/25 04:56:03;;;;;;;;;19.25;14.75;;;;;13.84;68.09;101273.00;5076951;27;45531;-72
2021/08/25 04:58:28;;;;;;;;;13.50;12.00;;;;;13.87;68.04;101267.59;5058973;28;45360;-75
2021/08/25 05:00:53;;;;;;;;;13.75;11.25;;;;;13.87;68.17;101272.88;5077430;27;45514;-72
2021/08/25 05:03:19;;;;;;;;;12.75;12.75;;;;;13.89;68.05;101273.66;5058569;28;47143;-71
2021/08/25 05:05:44;;;;;;;;;15.00;13.25;;;;;13.88;68.64;101264.88;5075462;28;45381;-73
2021/08/25 05:08:09;;;;;;;;;12.75;12.75;;;;;13.84;68.12;101268.59;5075541;27;45376;-73
2021/08/25 05:10:35;;;;;;;;;16.50;13.25;;;;;13.85;68.69;101270.31;5076999;27;45513;-71
2021/08/25 05:13:01;;;;;;;;;13.25;11.75;;;;;13.87;68.25;101273.75;5076737;27;46232;-66
2021/08/25 05:15:26;;;;;;;;;13.50;13.50;;;;;13.88;67.95;101275.47;5076772;27;45386;-73
2021/08/25 05:17:51;;;;;;;;;14.00;12.00;;;;;13.88;68.20;101261.38;5076731;28;45409;-73
2021/08/25 05:20:17;;;;;;;;;13.75;12.25;;;;;13.90;68.53;101275.38;5076793;28;45466;-71
2021/08/25 05:22:42;;;;;;;;;12.75;10.75;;;;;13.90;68.33;101270.09;5058302;28;46302;-73
2021/08/25 05:25:08;;;;;;;;;11.25;11.25;;;;;13.91;68.36;101269.16;5076519;28;45269;-73
2021/08/25 05:27:34;;;;;;;;;11.75;11.00;;;;;13.91;68.42;101269.16;5058673;28;45239;-72
2021/08/25 05:29:59;;;;;;;;;14.50;12.75;;;;;13.94;68.12;101276.97;5076928;27;45213;-71
2021/08/25 05:32:24;;;;;;;;;12.25;9.50;;;;;13.96;68.12;101282.22;5076289;27;46247;-72
2021/08/25 05:34:50;;;;;;;;;14.50;12.00;;;;;13.96;68.35;101277.75;5076353;28;45319;-72
2021/08/25 05:37:15;;;;;;;;;12.25;11.00;;;;;13.96;68.07;101272.47;5075051;28;45249;-72
2021/08/25 05:39:40;;;;;;;;;16.50;13.50;;;;;14.00;67.87;101283.78;5075062;28;45414;-71
2021/08/25 05:42:06;;;;;;;;;16.00;14.25;;;;;14.02;67.90;101279.28;5076255;27;45363;-73
2021/08/25 05:44:32;;;;;;;;;15.50;12.75;;;;;14.03;68.39;101281.84;5076333;27;45247;-70
2021/08/25 05:46:57;;;;;;;;;15.50;13.25;;;;;14.05;68.01;101281.81;5076858;28;45427;-67
2021/08/25 05:49:23;;;;;;;;;12.50;12.50;;;;;14.03;68.35;101270.44;5076275;27;45458;-68
2021/08/25 05:51:48;;;;;;;;;13.25;12.00;;;;;14.07;67.80;101282.59;5076031;28;45557;-65
2021/08/25 05:54:14;;;;;;;;;16.25;15.25;;;;;14.01;67.78;101272.28;5076088;27;45400;-71
2021/08/25 05:56:40;;;;;;;;;16.25;14.00;;;;;14.07;68.24;101285.25;5058121;28;45426;-70
2021/08/25 05:59:06;;;;;;;;;13.00;11.75;;;;;14.06;68.20;101277.34;5076330;28;45431;-71
2021/08/25 06:01:31;;;;;;;;;18.25;14.00;;;;;14.08;67.91;101278.16;5076305;28;45488;-69
2021/08/25 06:03:57;;;;;;;;;16.75;13.75;;;;;14.12;68.27;101283.25;5076041;27;45347;-69
2021/08/25 06:06:28;;;;;;;;;17.00;15.00;;;;;14.16;68.08;101289.25;5076078;28;45222;-69
2021/08/25 06:08:54;;;;;;;;;20.25;15.00;;;;;14.17;67.86;101290.97;5076567;27;45886;-75
2021/08/25 06:11:19;;;;;;;;;14.50;13.00;;;;;14.22;67.40;101298.72;5075989;28;45464;-71
2021/08/25 06:13:44;;;;;;;;;15.50;14.50;;;;;14.26;67.80;101298.50;5076005;28;45308;-68
2021/08/25 06:16:12;;;;;;;;;18.00;14.50;;;;;14.23;67.79;101285.41;5075546;27;45291;-70
2021/08/25 06:18:38;;;;;;;;;13.25;13.00;;;;;14.30;67.36;101292.16;5068301;28;45571;-67
2021/08/25 06:21:03;;;;;;;;;18.75;17.00;;;;;14.34;67.23;101290.25;5053398;28;46143;-73
2021/08/25 06:23:28;;;;;;;;;18.50;14.25;;;;;14.39;67.21;101280.31;5054056;28;45533;-71
2021/08/25 06:25:54;;;;;;;;;18.25;14.50;;;;;14.45;67.31;101285.31;5055603;28;45235;-71
2021/08/25 06:28:19;;;;;;;;;13.75;13.00;;;;;14.51;67.16;101288.63;5054288;28;45347;-72
2021/08/25 06:30:45;;;;;;;;;15.50;15.50;;;;;14.54;67.25;101288.47;5055120;28;45395;-71
2021/08/25 06:33:10;;;;;;;;;17.50;14.25;;;;;14.57;66.68;101289.22;5055092;28;45199;-70
2021/08/25 06:35:35;;;;;;;;;14.00;14.00;;;;;14.63;66.60;101290.69;5055533;28;45223;-65
2021/08/25 06:38:01;;;;;;;;;20.50;15.75;;;;;14.68;66.92;101288.69;5055267;28;45301;-63
2021/08/25 06:40:26;;;;;;;;;14.25;13.75;;;;;14.69;66.67;101292.22;5055124;28;45335;-68
2021/08/25 06:42:51;;;;;;;;;12.00;12.00;;;;;14.71;66.27;101272.69;5036700;28;45232;-64
2021/08/25 06:45:17;;;;;;;;;18.50;15.00;;;;;14.82;66.27;101287.22;5054363;28;45808;-72
2021/08/25 06:47:42;;;;;;;;;18.00;14.75;;;;;14.87;65.95;101287.91;5055012;28;45556;-64
2021/08/25 06:50:08;;;;;;;;;15.75;13.75;;;;;14.92;65.93;101291.19;5036318;28;45766;-61
2021/08/25 06:52:33;;;;;;;;;16.50;13.75;;;;;14.98;65.93;101296.19;5055013;28;45515;-63
2021/08/25 06:54:59;;;;;;;;;13.75;12.25;;;;;15.02;65.48;101289.81;5055987;28;45557;-64
2021/08/25 06:57:25;;;;;;;;;14.25;11.75;;;;;15.07;65.53;101294.03;5064592;28;45682;-67
2021/08/25 06:59:50;;;;;;;;;14.00;12.25;;;;;15.18;65.77;101292.56;5054833;28;46100;-61
2021/08/25 07:02:16;;;;;;;;;14.25;12.25;;;;;15.30;65.28;101298.22;5054964;28;45514;-60
2021/08/25 07:04:45;;;;;;;;;18.50;10.75;;;;;15.33;64.86;101290.97;5075673;27;45359;-66
2021/08/25 07:07:15;;;;;;;;;11.75;10.75;;;;;15.43;64.73;101298.47;5057447;28;45592;-65
2021/08/25 07:09:41;;;;;;;;;17.75;12.00;;;;;15.57;64.26;101300.47;5074505;28;45410;-63
2021/08/25 07:12:07;;;;;;;;;15.00;13.75;;;;;15.65;64.14;101306.22;5049251;28;45473;-63
2021/08/25 07:14:33;;;;;;;;;14.00;13.25;;;;;15.76;63.97;101308.34;5053157;28;45402;-60
2021/08/25 07:16:58;;;;;;;;;13.50;11.00;;;;;15.83;64.06;101301.78;5053149;28;45446;-60
2021/08/25 07:19:24;;;;;;;;;16.25;12.75;;;;;15.94;63.51;101300.44;5054071;28;45292;-61
2021/08/25 07:21:49;;;;;;;;;14.25;12.25;;;;;16.06;63.01;101302.44;5054320;28;45213;-59
2021/08/25 07:24:14;;;;;;;;;13.25;12.25;;;;;16.13;62.39;101292.34;5054413;28;45432;-61
2021/08/25 07:26:41;;;;;;;;;14.75;12.00;;;;;16.20;62.29;101294.63;5036385;28;45325;-60
2021/08/25 07:29:06;;;;;;;;;14.00;11.00;;;;;16.25;62.17;101290.88;5054690;28;46271;-60
2021/08/25 07:31:32;;;;;;;;;13.75;12.00;;;;;16.34;62.21;101285.06;5054655;28;45446;-57
2021/08/25 07:33:57;;;;;;;;;12.00;9.75;;;;;16.46;61.50;101291.53;5054475;28;45395;-59
2021/08/25 07:36:26;;;;;;;;;10.50;9.75;;;;;16.51;60.87;101286.81;5054474;28;45318;-61
2021/08/25 07:38:52;;;;;;;;;12.00;10.25;;;;;16.65;60.91;101288.72;5051701;28;47399;-59
2021/08/25 07:41:18;;;;;;;;;11.25;11.25;;;;;16.80;60.69;101293.19;5052215;28;45312;-59
2021/08/25 07:43:43;;;;;;;;;10.75;9.00;;;;;16.90;59.64;101292.66;5053972;28;45281;-60
2021/08/25 07:46:09;;;;;;;;;12.25;12.00;;;;;17.03;59.65;101298.19;5053985;28;45392;-59
2021/08/25 07:48:34;;;;;;;;;11.00;10.25;;;;;17.16;59.51;101291.25;5053429;28;48344;-58
2021/08/25 07:51:00;;;;;;;;;10.00;9.50;;;;;17.25;58.95;101291.66;5052328;28;45518;-58
2021/08/25 07:53:25;;;;;;;;;11.00;10.00;;;;;17.33;58.41;101295.63;5052466;28;45350;-57
2021/08/25 07:55:52;;;;;;;;;9.50;9.00;;;;;17.42;58.33;101290.72;5054026;28;45303;-56
2021/08/25 07:58:17;;;;;;;;;14.25;11.00;;;;;17.43;57.53;101279.97;5053422;28;46417;-60
2021/08/25 08:00:43;;;;;;;;;10.00;9.00;;;;;17.51;57.33;101277.75;5054289;28;45384;-60
2021/08/25 08:03:08;;;;;;;;;11.00;10.75;;;;;17.59;58.31;101279.94;5039372;28;45496;-59
2021/08/25 08:05:34;;;;;;;;;11.75;10.25;;;;;17.73;57.97;101278.25;5057783;28;45538;-58
2021/08/25 08:07:59;;;;;;;;;11.00;11.00;;;;;17.87;57.61;101272.97;5057364;28;45406;-55
2021/08/25 08:10:25;;;;;;;;;9.00;8.25;;;;;17.96;57.05;101271.56;5057212;28;45401;-55
2021/08/25 08:12:50;;;;;;;;;10.00;9.00;;;;;18.08;56.96;101270.84;5057165;28;45456;-56
2021/08/25 08:15:16;;;;;;;;;9.75;9.25;;;;;18.18;56.64;101272.94;5039001;28;45355;-59
2021/08/25 08:17:45;;;;;;;;;10.00;9.50;;;;;18.22;56.48;101270.03;5056427;28;46531;-57
2021/08/25 08:20:15;;;;;;;;;11.50;10.00;;;;;18.31;56.42;101276.56;5056543;28;45347;-57
2021/08/25 08:22:41;;;;;;;;;13.25;12.75;;;;;18.42;56.11;101272.38;5057137;28;45336;-55
2021/08/25 08:25:07;;;;;;;;;10.00;9.50;;;;;18.48;55.45;101267.53;5057533;28;45602;-63
2021/08/25 08:27:33;;;;;;;;;11.75;9.50;;;;;18.51;55.62;101264.69;5056974;28;45365;-58
2021/08/25 08:30:00;;;;;;;;;20.25;19.50;;;;;18.61;55.02;101272.97;5057310;28;45345;-62
2021/08/25 08:32:25;;;;;;;;;9.75;8.75;;;;;18.67;54.65;101269.91;5039225;28;45212;-58
2021/08/25 08:34:51;;;;;;;;;12.50;10.75;;;;;18.79;55.38;101264.75;5055902;28;45725;-59
2021/08/25 08:37:16;;;;;;;;;11.75;9.75;;;;;18.96;55.04;101263.63;5056623;28;45295;-58
2021/08/25 08:39:42;;;;;;;;;12.00;11.00;;;;;19.18;54.65;101264.97;5056770;28;45294;-61
2021/08/25 08:42:23;;;;;;;;;11.50;10.50;;;;;19.30;53.79;101258.81;5057162;28;45407;-59
2021/08/25 08:44:48;;;;;;;;;16.00;15.25;;;;;19.32;53.73;101258.69;5055239;28;45252;-56
2021/08/25 08:47:15;;;;;;;;;18.75;18.00;;;;;19.45;53.37;101258.75;5056517;28;45259;-63
2021/08/25 08:49:40;;;;;;;;;11.75;10.25;;;;;19.52;52.21;101258.19;5056706;28;45343;-61
2021/08/25 08:52:06;;;;;;;;;12.00;10.50;;;;;19.62;52.62;101258.44;5038540;28;45282;-59
2021/08/25 08:54:32;;;;;;;;;13.75;11.00;;;;;19.72;52.62;101272.03;5056854;28;45515;-59
2021/08/25 08:56:57;;;;;;;;;15.50;15.25;;;;;19.77;51.26;101261.03;5056408;28;45387;-57
2021/08/25 08:59:23;;;;;;;;;14.00;12.25;;;;;19.81;51.57;101260.72;5056025;28;45476;-62
2021/08/25 09:01:49;;;;;;;;;14.50;11.25;;;;;19.90;51.85;101264.59;5038198;28;45320;-58
2021/08/25 09:04:35;;;;;;;;;14.25;11.00;;;;;20.07;51.66;101259.91;5056481;28;45437;-60
2021/08/25 09:07:01;;;;;;;;;14.25;12.75;;;;;20.18;50.81;101265.38;5054381;28;46917;-59
2021/08/25 09:09:27;;;;;;;;;13.50;12.75;;;;;20.35;50.63;101269.50;5055829;28;45336;-62
2021/08/25 09:11:55;;;;;;;;;12.50;10.50;;;;;20.46;49.78;101258.06;5055772;28;45255;-57
2021/08/25 09:14:26;;;;;;;;;12.00;10.75;;;;;20.52;50.03;101256.75;5056401;28;45321;-58
2021/08/25 09:16:52;;;;;;;;;11.00;10.50;;;;;20.62;49.18;101254.28;5055911;28;46364;-57
2021/08/25 09:19:18;;;;;;;;;11.00;11.00;;;;;20.64;48.31;101252.34;5055981;28;45197;-58
2021/08/25 09:21:49;;;;;;;;;20.00;16.00;;;;;20.65;49.46;101251.38;5056149;28;45248;-55
2021/08/25 09:24:20;;;;;;;;;10.00;10.00;;;;;20.76;49.33;101256.81;5056408;28;45594;-61
2021/08/25 09:27:10;;;;;;;;;9.50;9.50;;;;;20.91;49.35;101252.19;5038365;28;45292;-56
2021/08/25 09:29:38;;;;;;;;;9.00;9.00;;;;;20.99;49.48;101260.50;5054398;28;45580;-62
2021/08/25 09:32:19;;;;;;;;;14.50;12.75;;;;;21.06;48.13;101258.22;5056254;28;45297;-58
2021/08/25 09:34:45;;;;;;;;;10.50;9.50;;;;;21.12;48.70;101252.41;5054755;28;45612;-61
2021/08/25 09:37:17;;;;;;;;;10.00;10.00;;;;;21.25;48.68;101259.56;5055729;28;45608;-57
2021/08/25 09:39:45;;;;;;;;;12.25;11.25;;;;;21.31;48.60;101248.38;5054174;28;45962;-58
2021/08/25 09:42:12;;;;;;;;;11.00;8.75;;;;;21.36;48.36;101258.72;5055848;28;45313;-57
2021/08/25 09:44:37;;;;;;;;;11.00;9.25;;;;;21.36;47.03;101264.94;5055731;28;45208;-58
2021/08/25 09:47:03;;;;;;;;;10.50;9.25;;;;;21.35;46.83;101246.31;5055328;28;45431;-60
2021/08/25 09:49:29;;;;;;;;;12.00;10.50;;;;;21.36;46.55;101240.88;5054985;28;45551;-59
2021/08/25 09:51:55;;;;;;;;;12.25;9.50;;;;;21.36;47.10;101251.56;5055314;28;45296;-60
2021/08/25 09:54:21;;;;;;;;;13.00;10.75;;;;;21.42;46.61;101248.44;5037731;28;45313;-56
2021/08/25 09:56:51;;;;;;;;;12.50;11.00;;;;;21.50;46.23;101238.97;5053464;28;47329;-58
2021/08/25 09:59:16;;;;;;;;;11.25;10.25;;;;;21.60;47.73;101240.78;5055043;28;45367;-58
2021/08/25 10:01:43;;;;;;;;;9.75;9.75;;;;;21.74;46.07;101238.94;5054320;28;45346;-59
2021/08/25 10:04:11;;;;;;;;;9.00;9.00;;;;;21.77;44.96;101235.16;5054067;28;45288;-55
2021/08/25 10:06:41;;;;;;;;;12.00;9.50;;;;;21.80;44.32;101234.91;5053240;28;45562;-57
2021/08/25 10:09:07;;;;;;;;;13.50;13.50;;;;;21.80;44.62;101235.78;5053312;28;45506;-55
2021/08/25 10:11:36;;;;;;;;;10.25;9.00;;;;;21.83;44.71;101224.84;5054541;28;45374;-56
2021/08/25 10:14:20;;;;;;;;;11.25;10.25;;;;;21.93;45.17;101224.94;5053622;28;45555;-57
2021/08/25 10:16:50;;;;;;;;;11.00;11.00;;;;;22.00;44.33;101230.69;5054075;28;45455;-59
2021/08/25 10:19:37;;;;;;;;;9.25;8.25;;;;;22.13;43.46;101225.19;5054443;28;45423;-62
2021/08/25 10:22:15;;;;;;;;;18.75;16.75;;;;;22.22;43.96;101229.00;5054966;28;45369;-62
2021/08/25 10:24:55;;;;;;;;;13.25;12.25;;;;;22.28;43.87;101215.09;5053412;28;45256;-62
2021/08/25 10:27:22;;;;;;;;;25.75;24.25;;;;;22.31;44.17;101210.38;5054672;28;45588;-57
2021/08/25 10:30:08;;;;;;;;;14.00;12.50;;;;;22.40;43.33;101210.59;5055038;28;45352;-60
2021/08/25 10:32:38;;;;;;;;;10.00;10.00;;;;;22.52;43.33;101216.81;5053610;28;45434;-61
2021/08/25 10:35:27;;;;;;;;;11.75;11.00;;;;;22.53;42.25;101205.97;5054800;28;45281;-57
2021/08/25 10:38:12;;;;;;;;;16.75;14.50;;;;;22.62;43.34;101207.03;5042167;28;45502;-59
2021/08/25 10:40:38;;;;;;;;;10.00;10.00;;;;;22.80;41.35;101210.03;5054173;28;45503;-61
2021/08/25 10:43:04;;;;;;;;;11.25;10.25;;;;;22.93;42.09;101201.84;5054866;28;45522;-63
2021/08/25 10:45:38;;;;;;;;;11.75;11.75;;;;;23.07;42.33;101207.88;5054498;28;45335;-61
2021/08/25 10:48:09;;;;;;;;;14.50;14.25;;;;;23.24;41.90;101209.16;5053015;28;48100;-61
2021/08/25 10:50:46;;;;;;;;;10.00;9.25;;;;;23.24;41.83;101204.66;5054468;28;45415;-61
2021/08/25 10:53:36;;;;;;;;;13.75;12.50;;;;;23.32;40.93;101206.69;5054928;28;45245;-62
2021/08/25 10:56:10;;;;;;;;;11.75;11.25;;;;;23.43;41.33;101195.91;5042878;28;45287;-60
2021/08/25 10:58:51;;;;;;;;;10.50;7.00;;;;;23.51;40.82;101197.09;5052703;28;45375;-62
2021/08/25 11:01:41;;;;;;;;;12.50;9.75;;;;;23.43;40.40;101185.19;5054100;28;45391;-63
2021/08/25 11:04:11;;;;;;;;;10.25;10.00;;;;;23.58;40.54;101187.53;5054049;28;45232;-61
2021/08/25 11:06:42;;;;;;;;;13.25;10.25;;;;;23.56;39.67;101189.50;5054498;28;45543;-61
2021/08/25 11:09:10;;;;;;;;;21.75;20.25;;;;;23.58;40.90;101183.00;5053852;28;45451;-62
2021/08/25 11:11:35;;;;;;;;;19.50;17.50;;;;;23.63;39.51;101182.59;5052735;28;45446;-61
2021/08/25 11:14:01;;;;;;;;;9.25;8.75;;;;;23.63;40.51;101177.25;5054320;28;45412;-62